Current Conditions
Mostly Clear
Conditions



Pressure
1028.92 (mb) - 30.38 (inHG)
Visibility

10.0 (km) - 6.2 (miles)
Temperature
-7  °C
Temperature
-8  °C
Dewpoint
93  %
 Humidity
Wind Speed
5  km/h
3  kts
3  mph
1.3  m/s
Wind Direction
N
45°
E
90°
135°
S
180°
225°
W
270°
315°
 310°

North West
Airport Data
LELN
León Airport
Metar :LELN 180700Z 31003KT CAVOK M07/M08 Q1029
Tue 18th January 08:00 am
Raw Metar Info
Raw METAR is the most common format in the world for the transmission of observational weather data. It is highly standardized through the International Civil Aviation Organization (ICAO), which allows it to be understood throughout most of the world.
API Info
Data Provided by
https://www.checkwx.com/weather/LELN

Aviation Weather providing METAR, TAF, AIRMET, SIGMET and OUTLOOK Weather Reports
© Info
CSS/SVG/PHP scripts were developed by weather34.com for use in the weather34 template © 2015-2022

Guide Info provided by Metar-Wikipedia